Terminal Aerodrome Forecast
Issued by NWS

Home | Current Version | Previous Version | Text Only | Print | Product List | Glossary On
Versions: 1 2 3 4 5 6 7 8 9 10 11 12 13 14 15 16 17 18 19 20 21 22 23 24 25 26 27 28
000
FTUS45 KCYS 270520
TAFLAR
TAF
KLAR 270520Z 2706/2806 35004KT P6SM VCSH SCT060 BKN120
     FM270900 01005KT P6SM BKN070
     FM271800 01008KT P6SM VCSH BKN200
     FM272300 05007KT P6SM VCSH BKN100=

USA.gov is the U.S. government's official web portal to all federal, state and local government web resources and services.